sensor_id;sensor_type;location;lat;lon;timestamp;pressure;altitude;pressure_sealevel;temperature;humidity
76424;BME280;65257;52.104;4.268;2023-03-26T00:01:55;100669.03;;;8.25;100.00
76424;BME280;65257;52.104;4.268;2023-03-26T00:04:23;100660.09;;;8.35;100.00
76424;BME280;65257;52.104;4.268;2023-03-26T00:06:50;100663.34;;;8.31;100.00
76424;BME280;65257;52.104;4.268;2023-03-26T00:09:19;100670.28;;;8.35;100.00
76424;BME280;65257;52.104;4.268;2023-03-26T00:11:44;100660.09;;;8.35;100.00
76424;BME280;65257;52.104;4.268;2023-03-26T00:14:11;100654.94;;;8.54;100.00
76424;BME280;65257;52.104;4.268;2023-03-26T00:16:40;100662.59;;;8.54;100.00
76424;BME280;65257;52.104;4.268;2023-03-26T00:19:06;100644.31;;;8.64;100.00
76424;BME280;65257;52.104;4.268;2023-03-26T00:21:36;100645.34;;;8.69;100.00
76424;BME280;65257;52.104;4.268;2023-03-26T00:24:23;100646.28;;;8.71;100.00
76424;BME280;65257;52.104;4.268;2023-03-26T00:26:57;100630.06;;;8.69;100.00
76424;BME280;65257;52.104;4.268;2023-03-26T00:29:23;100630.50;;;8.59;100.00
76424;BME280;65257;52.104;4.268;2023-03-26T00:31:52;100635.94;;;8.68;100.00
76424;BME280;65257;52.104;4.268;2023-03-26T00:34:20;100625.50;;;8.82;100.00
76424;BME280;65257;52.104;4.268;2023-03-26T00:36:47;100629.25;;;8.70;100.00
76424;BME280;65257;52.104;4.268;2023-03-26T00:39:21;100624.28;;;8.73;100.00
76424;BME280;65257;52.104;4.268;2023-03-26T00:41:49;100618.28;;;8.72;100.00
76424;BME280;65257;52.104;4.268;2023-03-26T00:44:24;100610.81;;;8.77;100.00
76424;BME280;65257;52.104;4.268;2023-03-26T00:46:51;100605.47;;;8.71;100.00
76424;BME280;65257;52.104;4.268;2023-03-26T00:49:19;100603.97;;;8.76;100.00
76424;BME280;65257;52.104;4.268;2023-03-26T00:51:45;100603.53;;;8.65;100.00
76424;BME280;65257;52.104;4.268;2023-03-26T00:54:10;100600.94;;;8.64;100.00
76424;BME280;65257;52.104;4.268;2023-03-26T00:56:36;100591.34;;;8.79;100.00
76424;BME280;65257;52.104;4.268;2023-03-26T00:59:04;100588.25;;;8.65;100.00
76424;BME280;65257;52.104;4.268;2023-03-26T01:01:33;100588.19;;;8.64;100.00
76424;BME280;65257;52.104;4.268;2023-03-26T01:04:28;100582.06;;;8.59;100.00
76424;BME280;65257;52.104;4.268;2023-03-26T01:06:56;100584.47;;;8.56;100.00
76424;BME280;65257;52.104;4.268;2023-03-26T01:09:34;100569.34;;;8.60;100.00
76424;BME280;65257;52.104;4.268;2023-03-26T01:12:02;100567.47;;;8.55;100.00
76424;BME280;65257;52.104;4.268;2023-03-26T01:14:29;100573.50;;;8.57;100.00
76424;BME280;65257;52.104;4.268;2023-03-26T01:17:00;100585.09;;;8.50;100.00
76424;BME280;65257;52.104;4.268;2023-03-26T01:19:57;100578.88;;;8.64;100.00
76424;BME280;65257;52.104;4.268;2023-03-26T01:22:37;100577.75;;;8.58;100.00
76424;BME280;65257;52.104;4.268;2023-03-26T01:25:07;100574.53;;;8.62;100.00
76424;BME280;65257;52.104;4.268;2023-03-26T01:27:47;100559.53;;;8.47;100.00
76424;BME280;65257;52.104;4.268;2023-03-26T01:33:02;100549.66;;;8.34;100.00
76424;BME280;65257;52.104;4.268;2023-03-26T01:41:09;100534.28;;;8.12;100.00
76424;BME280;65257;52.104;4.268;2023-03-26T01:46:44;100524.72;;;8.06;100.00
76424;BME280;65257;52.104;4.268;2023-03-26T01:49:30;100529.59;;;8.00;100.00
76424;BME280;65257;52.104;4.268;2023-03-26T01:51:58;100531.81;;;7.93;100.00
76424;BME280;65257;52.104;4.268;2023-03-26T01:54:28;100524.97;;;8.12;100.00
76424;BME280;65257;52.104;4.268;2023-03-26T02:06:04;100516.28;;;8.28;100.00
76424;BME280;65257;52.104;4.268;2023-03-26T02:11:12;100519.88;;;8.12;100.00
76424;BME280;65257;52.104;4.268;2023-03-26T02:13:41;100506.34;;;8.13;100.00
76424;BME280;65257;52.104;4.268;2023-03-26T02:16:14;100509.09;;;8.19;100.00
76424;BME280;65257;52.104;4.268;2023-03-26T02:18:42;100508.44;;;8.24;100.00
76424;BME280;65257;52.104;4.268;2023-03-26T02:21:52;100499.63;;;8.15;100.00
76424;BME280;65257;52.104;4.268;2023-03-26T02:24:01;100502.28;;;8.18;100.00
76424;BME280;65257;52.104;4.268;2023-03-26T02:26:29;100493.63;;;8.15;100.00
76424;BME280;65257;52.104;4.268;2023-03-26T02:28:56;100501.38;;;8.16;100.00
76424;BME280;65257;52.104;4.268;2023-03-26T02:31:22;100492.56;;;8.08;100.00
76424;BME280;65257;52.104;4.268;2023-03-26T02:33:51;100490.91;;;8.10;100.00
76424;BME280;65257;52.104;4.268;2023-03-26T02:36:18;100484.22;;;7.92;100.00
76424;BME280;65257;52.104;4.268;2023-03-26T02:38:55;100481.13;;;7.78;100.00
76424;BME280;65257;52.104;4.268;2023-03-26T02:41:24;100481.75;;;7.93;100.00
76424;BME280;65257;52.104;4.268;2023-03-26T02:43:49;100478.25;;;7.91;100.00
76424;BME280;65257;52.104;4.268;2023-03-26T02:46:16;100477.28;;;7.88;100.00
76424;BME280;65257;52.104;4.268;2023-03-26T02:48:42;100474.03;;;7.92;100.00
76424;BME280;65257;52.104;4.268;2023-03-26T02:51:08;100465.31;;;7.85;100.00
76424;BME280;65257;52.104;4.268;2023-03-26T02:53:34;100458.00;;;7.94;100.00
76424;BME280;65257;52.104;4.268;2023-03-26T02:56:02;100454.16;;;7.83;100.00
76424;BME280;65257;52.104;4.268;2023-03-26T02:58:28;100453.03;;;7.97;100.00
76424;BME280;65257;52.104;4.268;2023-03-26T03:00:54;100451.78;;;8.08;100.00
76424;BME280;65257;52.104;4.268;2023-03-26T03:03:29;100460.69;;;8.19;100.00
76424;BME280;65257;52.104;4.268;2023-03-26T03:05:55;100452.53;;;8.27;100.00
76424;BME280;65257;52.104;4.268;2023-03-26T03:08:23;100452.53;;;8.27;100.00
76424;BME280;65257;52.104;4.268;2023-03-26T03:13:32;100452.38;;;8.24;100.00
76424;BME280;65257;52.104;4.268;2023-03-26T03:16:01;100452.72;;;8.33;100.00
76424;BME280;65257;52.104;4.268;2023-03-26T03:18:32;100454.59;;;8.37;100.00
76424;BME280;65257;52.104;4.268;2023-03-26T03:20:58;100445.91;;;8.32;100.00
76424;BME280;65257;52.104;4.268;2023-03-26T03:23:24;100438.94;;;8.28;100.00
76424;BME280;65257;52.104;4.268;2023-03-26T03:25:58;100441.16;;;8.41;100.00
76424;BME280;65257;52.104;4.268;2023-03-26T03:28:24;100432.69;;;8.42;100.00
76424;BME280;65257;52.104;4.268;2023-03-26T03:30:50;100435.56;;;8.51;100.00
76424;BME280;65257;52.104;4.268;2023-03-26T03:33:24;100428.28;;;8.38;100.00
76424;BME280;65257;52.104;4.268;2023-03-26T03:35:53;100425.53;;;8.32;100.00
76424;BME280;65257;52.104;4.268;2023-03-26T03:38:40;100421.78;;;8.46;100.00
76424;BME280;65257;52.104;4.268;2023-03-26T03:41:07;100422.22;;;8.34;100.00
76424;BME280;65257;52.104;4.268;2023-03-26T03:43:33;100422.69;;;8.48;100.00
76424;BME280;65257;52.104;4.268;2023-03-26T03:45:59;100420.28;;;8.51;100.00
76424;BME280;65257;52.104;4.268;2023-03-26T03:48:26;100409.38;;;8.55;100.00
76424;BME280;65257;52.104;4.268;2023-03-26T03:50:55;100410.91;;;8.50;100.00
76424;BME280;65257;52.104;4.268;2023-03-26T03:53:26;100412.75;;;8.54;100.00
76424;BME280;65257;52.104;4.268;2023-03-26T03:55:54;100394.16;;;8.58;100.00
76424;BME280;65257;52.104;4.268;2023-03-26T03:58:25;100390.97;;;8.63;100.00
76424;BME280;65257;52.104;4.268;2023-03-26T04:00:53;100383.22;;;8.60;100.00
76424;BME280;65257;52.104;4.268;2023-03-26T04:03:28;100379.75;;;8.58;100.00
76424;BME280;65257;52.104;4.268;2023-03-26T04:06:05;100385.72;;;8.59;100.00
76424;BME280;65257;52.104;4.268;2023-03-26T04:08:32;100385.72;;;8.59;100.00
76424;BME280;65257;52.104;4.268;2023-03-26T04:11:02;100386.44;;;8.55;100.00
76424;BME280;65257;52.104;4.268;2023-03-26T04:13:27;100380.72;;;8.62;100.00
76424;BME280;65257;52.104;4.268;2023-03-26T04:15:55;100379.00;;;8.61;100.00
76424;BME280;65257;52.104;4.268;2023-03-26T04:18:23;100370.53;;;8.62;100.00
76424;BME280;65257;52.104;4.268;2023-03-26T04:20:53;100364.59;;;8.63;100.00
76424;BME280;65257;52.104;4.268;2023-03-26T04:23:27;100368.03;;;8.63;100.00
76424;BME280;65257;52.104;4.268;2023-03-26T04:26:06;100353.50;;;8.61;100.00
76424;BME280;65257;52.104;4.268;2023-03-26T04:28:51;100353.59;;;8.64;100.00
76424;BME280;65257;52.104;4.268;2023-03-26T04:31:21;100350.13;;;8.62;100.00
76424;BME280;65257;52.104;4.268;2023-03-26T04:33:55;100348.34;;;8.59;100.00
76424;BME280;65257;52.104;4.268;2023-03-26T04:36:29;100346.69;;;8.60;100.00
76424;BME280;65257;52.104;4.268;2023-03-26T04:38:58;100341.56;;;8.60;100.00
76424;BME280;65257;52.104;4.268;2023-03-26T04:41:26;100334.72;;;8.59;100.00
76424;BME280;65257;52.104;4.268;2023-03-26T04:43:54;100335.50;;;8.56;100.00
76424;BME280;65257;52.104;4.268;2023-03-26T04:46:22;100331.16;;;8.54;100.00
76424;BME280;65257;52.104;4.268;2023-03-26T04:48:54;100330.28;;;8.53;100.00
76424;BME280;65257;52.104;4.268;2023-03-26T04:51:23;100320.84;;;8.51;100.00
76424;BME280;65257;52.104;4.268;2023-03-26T04:53:57;100320.66;;;8.45;100.00
76424;BME280;65257;52.104;4.268;2023-03-26T04:59:09;100312.06;;;8.43;100.00
76424;BME280;65257;52.104;4.268;2023-03-26T05:01:40;100302.69;;;8.42;100.00
76424;BME280;65257;52.104;4.268;2023-03-26T05:04:11;100299.38;;;8.44;100.00
76424;BME280;65257;52.104;4.268;2023-03-26T05:06:39;100297.78;;;8.48;100.00
76424;BME280;65257;52.104;4.268;2023-03-26T05:09:12;100287.56;;;8.46;100.00
76424;BME280;65257;52.104;4.268;2023-03-26T05:11:44;100293.41;;;8.44;100.00
76424;BME280;65257;52.104;4.268;2023-03-26T05:14:14;100296.00;;;8.45;100.00
76424;BME280;65257;52.104;4.268;2023-03-26T05:16:44;100283.09;;;8.41;100.00
76424;BME280;65257;52.104;4.268;2023-03-26T05:19:10;100283.00;;;8.38;100.00
76424;BME280;65257;52.104;4.268;2023-03-26T05:21:36;100278.00;;;8.41;100.00
76424;BME280;65257;52.104;4.268;2023-03-26T05:24:01;100278.78;;;8.38;100.00
76424;BME280;65257;52.104;4.268;2023-03-26T05:26:27;100272.91;;;8.41;100.00
76424;BME280;65257;52.104;4.268;2023-03-26T05:28:54;100266.06;;;8.40;100.00
76424;BME280;65257;52.104;4.268;2023-03-26T05:31:20;100269.50;;;8.40;100.00
76424;BME280;65257;52.104;4.268;2023-03-26T05:33:46;100271.84;;;8.34;100.00
76424;BME280;65257;52.104;4.268;2023-03-26T05:36:12;100262.72;;;8.41;100.00
76424;BME280;65257;52.104;4.268;2023-03-26T05:38:40;100256.59;;;8.36;100.00
76424;BME280;65257;52.104;4.268;2023-03-26T05:41:07;100256.81;;;8.42;100.00
76424;BME280;65257;52.104;4.268;2023-03-26T05:43:34;100253.19;;;8.35;100.00
76424;BME280;65257;52.104;4.268;2023-03-26T05:46:00;100254.09;;;8.37;100.00
76424;BME280;65257;52.104;4.268;2023-03-26T05:48:28;100253.94;;;8.33;100.00
76424;BME280;65257;52.104;4.268;2023-03-26T05:51:12;100248.84;;;8.33;100.00
76424;BME280;65257;52.104;4.268;2023-03-26T05:53:47;100252.13;;;8.29;100.00
76424;BME280;65257;52.104;4.268;2023-03-26T05:56:13;100257.31;;;8.32;100.00
76424;BME280;65257;52.104;4.268;2023-03-26T05:58:39;100254.03;;;8.36;100.00
76424;BME280;65257;52.104;4.268;2023-03-26T06:01:12;100249.38;;;8.24;100.00
76424;BME280;65257;52.104;4.268;2023-03-26T06:03:45;100252.72;;;8.23;100.00
76424;BME280;65257;52.104;4.268;2023-03-26T06:06:14;100247.19;;;8.35;100.00
76424;BME280;65257;52.104;4.268;2023-03-26T06:08:45;100242.88;;;8.32;100.00
76424;BME280;65257;52.104;4.268;2023-03-26T06:11:32;100242.31;;;8.41;100.00
76424;BME280;65257;52.104;4.268;2023-03-26T06:13:59;100237.88;;;8.35;100.00
76424;BME280;65257;52.104;4.268;2023-03-26T06:16:25;100226.81;;;8.35;100.00
76424;BME280;65257;52.104;4.268;2023-03-26T06:18:54;100232.44;;;8.26;100.00
76424;BME280;65257;52.104;4.268;2023-03-26T06:21:28;100223.56;;;8.39;100.00
76424;BME280;65257;52.104;4.268;2023-03-26T06:23:55;100228.56;;;8.36;100.00
76424;BME280;65257;52.104;4.268;2023-03-26T06:26:30;100229.38;;;8.35;100.00
76424;BME280;65257;52.104;4.268;2023-03-26T06:29:01;100216.84;;;8.41;100.00
76424;BME280;65257;52.104;4.268;2023-03-26T06:31:30;100223.34;;;8.33;100.00
76424;BME280;65257;52.104;4.268;2023-03-26T06:33:56;100226.63;;;8.29;100.00
76424;BME280;65257;52.104;4.268;2023-03-26T06:36:22;100228.25;;;8.27;100.00
76424;BME280;65257;52.104;4.268;2023-03-26T06:38:50;100220.66;;;8.28;100.00
76424;BME280;65257;52.104;4.268;2023-03-26T06:41:17;100230.97;;;8.31;100.00
76424;BME280;65257;52.104;4.268;2023-03-26T06:43:42;100224.88;;;8.28;100.00
76424;BME280;65257;52.104;4.268;2023-03-26T06:46:09;100227.56;;;8.32;100.00
76424;BME280;65257;52.104;4.268;2023-03-26T06:48:35;100231.59;;;8.26;100.00
76424;BME280;65257;52.104;4.268;2023-03-26T06:51:00;100234.31;;;8.30;100.00
76424;BME280;65257;52.104;4.268;2023-03-26T06:53:26;100234.84;;;8.22;100.00
76424;BME280;65257;52.104;4.268;2023-03-26T06:55:54;100232.19;;;8.18;100.00
76424;BME280;65257;52.104;4.268;2023-03-26T06:58:23;100228.78;;;8.18;100.00
76424;BME280;65257;52.104;4.268;2023-03-26T07:00:55;100226.38;;;8.23;100.00
76424;BME280;65257;52.104;4.268;2023-03-26T07:03:25;100229.84;;;8.25;100.00
76424;BME280;65257;52.104;4.268;2023-03-26T07:05:51;100235.94;;;8.28;100.00
76424;BME280;65257;52.104;4.268;2023-03-26T07:08:20;100228.06;;;8.22;100.00
76424;BME280;65257;52.104;4.268;2023-03-26T07:10:48;100231.75;;;8.30;100.00
76424;BME280;65257;52.104;4.268;2023-03-26T07:13:15;100228.34;;;8.30;100.00
76424;BME280;65257;52.104;4.268;2023-03-26T07:15:44;100226.63;;;8.29;100.00
76424;BME280;65257;52.104;4.268;2023-03-26T07:18:12;100228.81;;;8.43;100.00
76424;BME280;65257;52.104;4.268;2023-03-26T07:20:38;100222.84;;;8.43;100.00
76424;BME280;65257;52.104;4.268;2023-03-26T07:23:05;100224.47;;;8.41;100.00
76424;BME280;65257;52.104;4.268;2023-03-26T07:25:35;100228.53;;;8.34;100.00
76424;BME280;65257;52.104;4.268;2023-03-26T07:28:38;100231.22;;;8.39;100.00
76424;BME280;65257;52.104;4.268;2023-03-26T07:31:36;100232.94;;;8.40;100.00
76424;BME280;65257;52.104;4.268;2023-03-26T07:40:04;100224.28;;;8.60;100.00
76424;BME280;65257;52.104;4.268;2023-03-26T07:42:49;100229.53;;;8.64;100.00
76424;BME280;65257;52.104;4.268;2023-03-26T07:45:44;100224.56;;;8.69;100.00
76424;BME280;65257;52.104;4.268;2023-03-26T07:48:24;100222.03;;;8.69;100.00
76424;BME280;65257;52.104;4.268;2023-03-26T07:50:55;100224.06;;;8.54;100.00
76424;BME280;65257;52.104;4.268;2023-03-26T07:53:26;100222.75;;;8.65;100.00
76424;BME280;65257;52.104;4.268;2023-03-26T08:02:18;100227.44;;;8.53;100.00
76424;BME280;65257;52.104;4.268;2023-03-26T08:08:31;100220.41;;;8.46;100.00
76424;BME280;65257;52.104;4.268;2023-03-26T08:16:48;100225.72;;;8.52;100.00
76424;BME280;65257;52.104;4.268;2023-03-26T08:22:48;100225.09;;;8.59;100.00
76424;BME280;65257;52.104;4.268;2023-03-26T08:25:28;100228.56;;;8.61;100.00
76424;BME280;65257;52.104;4.268;2023-03-26T08:28:07;100221.00;;;8.64;100.00
76424;BME280;65257;52.104;4.268;2023-03-26T08:30:39;100226.84;;;8.60;100.00
76424;BME280;65257;52.104;4.268;2023-03-26T08:35:44;100221.22;;;8.70;100.00
76424;BME280;65257;52.104;4.268;2023-03-26T08:38:12;100222.81;;;8.68;100.00
76424;BME280;65257;52.104;4.268;2023-03-26T08:55:16;100231.88;;;8.58;100.00
76424;BME280;65257;52.104;4.268;2023-03-26T09:09:45;100246.94;;;8.27;100.00
76424;BME280;65257;52.104;4.268;2023-03-26T09:18:46;100256.19;;;8.49;100.00
76424;BME280;65257;52.104;4.268;2023-03-26T09:24:31;100257.00;;;8.48;100.00
76424;BME280;65257;52.104;4.268;2023-03-26T09:30:14;100256.81;;;8.42;100.00
76424;BME280;65257;52.104;4.268;2023-03-26T09:50:27;100275.78;;;8.75;100.00
76424;BME280;65257;52.104;4.268;2023-03-26T09:53:12;100275.31;;;8.87;100.00
76424;BME280;65257;52.104;4.268;2023-03-26T10:11:47;100299.25;;;8.65;100.00
76424;BME280;65257;52.104;4.268;2023-03-26T10:23:07;100301.69;;;8.87;100.00
76424;BME280;65257;52.104;4.268;2023-03-26T10:37:06;100328.22;;;8.92;100.00
76424;BME280;65257;52.104;4.268;2023-03-26T10:39:54;100322.50;;;8.99;100.00
76424;BME280;65257;52.104;4.268;2023-03-26T10:48:20;100331.84;;;8.99;100.00
76424;BME280;65257;52.104;4.268;2023-03-26T10:53:38;100332.66;;;8.72;100.00
76424;BME280;65257;52.104;4.268;2023-03-26T10:56:40;100347.59;;;8.87;100.00
76424;BME280;65257;52.104;4.268;2023-03-26T10:59:12;100344.69;;;8.76;100.00
76424;BME280;65257;52.104;4.268;2023-03-26T11:04:48;100360.72;;;8.72;100.00
76424;BME280;65257;52.104;4.268;2023-03-26T11:15:51;100369.34;;;8.52;100.00
76424;BME280;65257;52.104;4.268;2023-03-26T11:18:27;100364.34;;;8.55;100.00
76424;BME280;65257;52.104;4.268;2023-03-26T11:21:13;100380.72;;;8.62;100.00
76424;BME280;65257;52.104;4.268;2023-03-26T11:29:38;100381.78;;;8.92;100.00
76424;BME280;65257;52.104;4.268;2023-03-26T11:32:22;100383.72;;;8.99;100.00
76424;BME280;65257;52.104;4.268;2023-03-26T11:38:11;100393.75;;;8.93;100.00
76424;BME280;65257;52.104;4.268;2023-03-26T11:40:40;100393.00;;;8.97;100.00
76424;BME280;65257;52.104;4.268;2023-03-26T11:43:12;100404.03;;;8.96;100.00
76424;BME280;65257;52.104;4.268;2023-03-26T11:45:44;100401.47;;;8.96;100.00
76424;BME280;65257;52.104;4.268;2023-03-26T11:48:39;100404.25;;;9.02;100.00
76424;BME280;65257;52.104;4.268;2023-03-26T11:51:33;100406.16;;;9.09;100.00
76424;BME280;65257;52.104;4.268;2023-03-26T11:54:01;100415.63;;;9.12;100.00
76424;BME280;65257;52.104;4.268;2023-03-26T11:59:04;100417.75;;;9.25;100.00
76424;BME280;65257;52.104;4.268;2023-03-26T12:01:47;100424.34;;;9.43;100.00
76424;BME280;65257;52.104;4.268;2023-03-26T12:04:43;100431.56;;;9.55;100.00
76424;BME280;65257;52.104;4.268;2023-03-26T12:10:06;100431.50;;;9.54;100.00
76424;BME280;65257;52.104;4.268;2023-03-26T12:12:45;100423.97;;;9.58;100.00
76424;BME280;65257;52.104;4.268;2023-03-26T12:15:16;100428.63;;;9.70;100.00
76424;BME280;65257;52.104;4.268;2023-03-26T12:17:49;100442.63;;;9.82;100.00
76424;BME280;65257;52.104;4.268;2023-03-26T12:22:50;100438.56;;;10.74;100.00
76424;BME280;65257;52.104;4.268;2023-03-26T12:25:22;100435.28;;;10.78;100.00
76424;BME280;65257;52.104;4.268;2023-03-26T12:31:13;100448.88;;;10.77;100.00
76424;BME280;65257;52.104;4.268;2023-03-26T12:34:03;100458.31;;;10.20;100.00
76424;BME280;65257;52.104;4.268;2023-03-26T12:36:56;100453.66;;;10.08;100.00
76424;BME280;65257;52.104;4.268;2023-03-26T12:39:41;100462.69;;;9.97;100.00
76424;BME280;65257;52.104;4.268;2023-03-26T12:42:27;100468.31;;;9.87;100.00
76424;BME280;65257;52.104;4.268;2023-03-26T12:44:55;100471.34;;;10.02;100.00
76424;BME280;65257;52.104;4.268;2023-03-26T12:47:29;100476.91;;;9.89;100.00
76424;BME280;65257;52.104;4.268;2023-03-26T12:49:59;100479.69;;;9.70;100.00
76424;BME280;65257;52.104;4.268;2023-03-26T12:52:59;100484.81;;;9.70;100.00
76424;BME280;65257;52.104;4.268;2023-03-26T12:58:52;100495.09;;;9.46;100.00
76424;BME280;65257;52.104;4.268;2023-03-26T13:04:50;100497.47;;;9.41;100.00
76424;BME280;65257;52.104;4.268;2023-03-26T13:13:30;100513.72;;;9.69;100.00
76424;BME280;65257;52.104;4.268;2023-03-26T13:16:11;100506.97;;;9.96;100.00
76424;BME280;65257;52.104;4.268;2023-03-26T13:25:00;100512.94;;;10.22;100.00
76424;BME280;65257;52.104;4.268;2023-03-26T13:27:52;100523.94;;;10.19;100.00
76424;BME280;65257;52.104;4.268;2023-03-26T13:33:44;100523.81;;;10.16;100.00
76424;BME280;65257;52.104;4.268;2023-03-26T13:36:30;100536.19;;;9.79;100.00
76424;BME280;65257;52.104;4.268;2023-03-26T13:39:15;100547.25;;;9.53;100.00
76424;BME280;65257;52.104;4.268;2023-03-26T13:48:34;100551.16;;;8.96;100.00
76424;BME280;65257;52.104;4.268;2023-03-26T13:51:17;100561.75;;;8.84;100.00
76424;BME280;65257;52.104;4.268;2023-03-26T13:53:59;100566.75;;;8.81;100.00
76424;BME280;65257;52.104;4.268;2023-03-26T13:56:37;100561.56;;;8.78;100.00
76424;BME280;65257;52.104;4.268;2023-03-26T14:02:04;100576.09;;;8.80;100.00
76424;BME280;65257;52.104;4.268;2023-03-26T14:04:55;100571.75;;;8.78;100.00
76424;BME280;65257;52.104;4.268;2023-03-26T14:07:35;100566.28;;;8.69;100.00
76424;BME280;65257;52.104;4.268;2023-03-26T14:10:17;100575.16;;;8.56;100.00
76424;BME280;65257;52.104;4.268;2023-03-26T14:16:28;100590.88;;;8.45;100.00
76424;BME280;65257;52.104;4.268;2023-03-26T14:18:36;100592.53;;;8.44;100.00
76424;BME280;65257;52.104;4.268;2023-03-26T14:24:23;100600.41;;;8.50;100.00
76424;BME280;65257;52.104;4.268;2023-03-26T14:39:27;100622.22;;;8.42;100.00
76424;BME280;65257;52.104;4.268;2023-03-26T14:45:41;100629.91;;;8.04;100.00
76424;BME280;65257;52.104;4.268;2023-03-26T14:49:27;100640.53;;;8.14;100.00
76424;BME280;65257;52.104;4.268;2023-03-26T14:54:10;100647.66;;;8.22;100.00
76424;BME280;65257;52.104;4.268;2023-03-26T15:12:29;100684.81;;;8.16;100.00
76424;BME280;65257;52.104;4.268;2023-03-26T15:23:32;100705.06;;;8.13;100.00
76424;BME280;65257;52.104;4.268;2023-03-26T15:31:39;100729.88;;;8.17;100.00
76424;BME280;65257;52.104;4.268;2023-03-26T15:39:52;100743.16;;;7.91;100.00
76424;BME280;65257;52.104;4.268;2023-03-26T15:43:11;100745.91;;;7.77;100.00
76424;BME280;65257;52.104;4.268;2023-03-26T15:48:24;100742.47;;;7.76;100.00
76424;BME280;65257;52.104;4.268;2023-03-26T15:51:29;100766.53;;;7.64;100.00
76424;BME280;65257;52.104;4.268;2023-03-26T15:54:07;100762.31;;;7.64;100.00
76424;BME280;65257;52.104;4.268;2023-03-26T16:18:47;100827.34;;;7.40;100.00
76424;BME280;65257;52.104;4.268;2023-03-26T16:24:29;100839.00;;;7.35;100.00
76424;BME280;65257;52.104;4.268;2023-03-26T16:27:00;100844.97;;;7.35;100.00
76424;BME280;65257;52.104;4.268;2023-03-26T16:29:30;100849.31;;;7.38;100.00
76424;BME280;65257;52.104;4.268;2023-03-26T16:32:27;100857.63;;;7.34;100.00
76424;BME280;65257;52.104;4.268;2023-03-26T16:38:11;100872.00;;;7.16;100.00
76424;BME280;65257;52.104;4.268;2023-03-26T16:41:04;100880.69;;;7.03;100.00
76424;BME280;65257;52.104;4.268;2023-03-26T16:43:55;100879.09;;;7.05;100.00
76424;BME280;65257;52.104;4.268;2023-03-26T16:55:39;100901.50;;;7.12;100.00
76424;BME280;65257;52.104;4.268;2023-03-26T17:38:54;100995.38;;;6.75;100.00
76424;BME280;65257;52.104;4.268;2023-03-26T17:41:51;101003.16;;;6.78;100.00
76424;BME280;65257;52.104;4.268;2023-03-26T17:44:53;101007.63;;;6.82;100.00
76424;BME280;65257;52.104;4.268;2023-03-26T17:47:52;101004.16;;;6.80;100.00
76424;BME280;65257;52.104;4.268;2023-03-26T17:53:39;101025.41;;;6.66;100.00
76424;BME280;65257;52.104;4.268;2023-03-26T17:56:15;101039.63;;;6.63;100.00
76424;BME280;65257;52.104;4.268;2023-03-26T17:58:48;101041.91;;;6.58;100.00
76424;BME280;65257;52.104;4.268;2023-03-26T18:04:00;101038.97;;;6.51;100.00
76424;BME280;65257;52.104;4.268;2023-03-26T18:17:13;101079.25;;;6.59;100.00
76424;BME280;65257;52.104;4.268;2023-03-26T18:19:48;101086.34;;;6.65;100.00
76424;BME280;65257;52.104;4.268;2023-03-26T18:22:28;101096.59;;;6.66;100.00
76424;BME280;65257;52.104;4.268;2023-03-26T18:25:04;101106.59;;;6.63;100.00
76424;BME280;65257;52.104;4.268;2023-03-26T18:27:36;101108.19;;;6.61;100.00
76424;BME280;65257;52.104;4.268;2023-03-26T18:30:15;101105.69;;;6.63;100.00
76424;BME280;65257;52.104;4.268;2023-03-26T18:33:02;101108.34;;;6.50;100.00
76424;BME280;65257;52.104;4.268;2023-03-26T18:35:55;101119.75;;;6.56;100.00
76424;BME280;65257;52.104;4.268;2023-03-26T18:38:24;101129.75;;;6.53;100.00
76424;BME280;65257;52.104;4.268;2023-03-26T18:40:57;101143.59;;;6.58;100.00
76424;BME280;65257;52.104;4.268;2023-03-26T18:43:23;101140.28;;;6.59;100.00
76424;BME280;65257;52.104;4.268;2023-03-26T18:45:50;101150.44;;;6.59;100.00
76424;BME280;65257;52.104;4.268;2023-03-26T18:48:24;101157.81;;;6.55;100.00
76424;BME280;65257;52.104;4.268;2023-03-26T18:51:02;101159.28;;;6.51;100.00
76424;BME280;65257;52.104;4.268;2023-03-26T18:53:34;101173.78;;;6.52;100.00
76424;BME280;65257;52.104;4.268;2023-03-26T18:56:29;101176.91;;;6.48;100.00
76424;BME280;65257;52.104;4.268;2023-03-26T18:59:28;101180.59;;;6.39;100.00
76424;BME280;65257;52.104;4.268;2023-03-26T19:01:57;101183.16;;;6.39;100.00
76424;BME280;65257;52.104;4.268;2023-03-26T19:04:26;101196.88;;;6.42;100.00
76424;BME280;65257;52.104;4.268;2023-03-26T19:06:59;101199.16;;;6.38;100.00
76424;BME280;65257;52.104;4.268;2023-03-26T19:09:26;101194.59;;;6.32;100.00
76424;BME280;65257;52.104;4.268;2023-03-26T19:11:57;101192.06;;;6.32;100.00
76424;BME280;65257;52.104;4.268;2023-03-26T19:14:28;101196.38;;;6.33;100.00
76424;BME280;65257;52.104;4.268;2023-03-26T19:17:02;101206.53;;;6.33;100.00
76424;BME280;65257;52.104;4.268;2023-03-26T19:19:34;101199.53;;;6.29;100.00
76424;BME280;65257;52.104;4.268;2023-03-26T19:22:02;101198.66;;;6.28;100.00
76424;BME280;65257;52.104;4.268;2023-03-26T19:24:30;101200.38;;;6.29;100.00
76424;BME280;65257;52.104;4.268;2023-03-26T19:26:56;101216.31;;;6.27;100.00
76424;BME280;65257;52.104;4.268;2023-03-26T19:29:27;101206.16;;;6.27;100.00
76424;BME280;65257;52.104;4.268;2023-03-26T19:32:17;101214.78;;;6.29;100.00
76424;BME280;65257;52.104;4.268;2023-03-26T19:34:45;101221.78;;;6.33;100.00
76424;BME280;65257;52.104;4.268;2023-03-26T19:37:29;101219.16;;;6.32;100.00
76424;BME280;65257;52.104;4.268;2023-03-26T19:40:22;101224.13;;;6.30;100.00
76424;BME280;65257;52.104;4.268;2023-03-26T19:42:58;101230.34;;;6.35;100.00
76424;BME280;65257;52.104;4.268;2023-03-26T19:45:27;101237.03;;;6.33;100.00